Rossford, Ohio
Current Conditions -  °F | °C
As of 5:53 PM on Monday 22 Dec 2014 (Local Time) from KTDZ Reporting Station
Haze Haze  
Wind Chill: 29°   Ceiling: 7000
Heat Index: 35°   Visibility: 6mi
Dew Point: 30°   Wind: 8mph
Humidity: 82%   Direction: 50°NE
Pressure: 29.91"   Gusts: NA
Location:  41.61°N, 83.56°W
Report Text: KTDZ 222253Z AUTO 05007KT 6SM HZ BKN070 02/M01 A2991 RMK AO2 SLP133 T00171011 TSNO
Loading
Personal Weather Stations






























Interactive Weather Map New forecast layout! Learn more

10-Day Weather Forecast

Advertisements
Track Severe Weather on mobile